Time;durP1;ratioP1;P1;durP2;ratioP2;P2;SDS_P1;SDS_P2;PMS_P1;PMS_P2;Temp;Humidity;BMP_temperature;BMP_pressure;BME280_temperature;BME280_humidity;BME280_pressure;Samples;Min_cycle;Max_cycle;Signal;HPM_P1;HPM_P2
2021/12/09 00:02:12;;;;;;;7.13;5.40;;;;;;;;;;5033921;28;20205;-67
2021/12/09 00:04:37;;;;;;;6.47;5.35;;;;;;;;;;5033660;28;20167;-66
2021/12/09 00:07:03;;;;;;;6.65;5.80;;;;;;;;;;5033584;28;20197;-67
2021/12/09 00:09:28;;;;;;;8.75;5.65;;;;;;;;;;5033595;28;20227;-67
2021/12/09 00:11:54;;;;;;;7.35;5.20;;;;;;;;;;5033720;28;20174;-67
2021/12/09 00:14:21;;;;;;;6.13;5.20;;;;;;;;;;5033558;28;20275;-67
2021/12/09 00:16:47;;;;;;;6.65;5.40;;;;;;;;;;5033621;28;20193;-68
2021/12/09 00:19:12;;;;;;;7.35;5.53;;;;;;;;;;5033302;28;20637;-67
2021/12/09 00:21:37;;;;;;;6.18;5.07;;;;;;;;;;5033169;28;20261;-68
2021/12/09 00:24:03;;;;;;;6.45;4.97;;;;;;;;;;5033375;28;20189;-68
2021/12/09 00:26:28;;;;;;;8.27;5.88;;;;;;;;;;5033452;28;20210;-67
2021/12/09 00:28:54;;;;;;;6.95;5.32;;;;;;;;;;5032980;28;20181;-67
2021/12/09 00:31:19;;;;;;;6.70;6.10;;;;;;;;;;5032965;28;20176;-67
2021/12/09 00:33:46;;;;;;;8.93;5.85;;;;;;;;;;5032841;28;20269;-67
2021/12/09 00:36:14;;;;;;;8.52;5.45;;;;;;;;;;5032990;28;20170;-68
2021/12/09 00:38:41;;;;;;;6.72;5.50;;;;;;;;;;5032926;28;20667;-67
2021/12/09 00:41:11;;;;;;;8.77;6.95;;;;;;;;;;5033162;28;20206;-67
2021/12/09 00:43:36;;;;;;;6.47;5.38;;;;;;;;;;5032961;28;20186;-67
2021/12/09 00:46:02;;;;;;;10.07;6.93;;;;;;;;;;5032749;28;20563;-68
2021/12/09 00:48:28;;;;;;;9.70;8.25;;;;;;;;;;5033053;28;20163;-67
2021/12/09 00:50:54;;;;;;;11.23;8.95;;;;;;;;;;5032941;28;20178;-67
2021/12/09 00:53:20;;;;;;;15.70;10.80;;;;;;;;;;5032834;28;20163;-67
2021/12/09 00:55:45;;;;;;;19.85;11.93;;;;;;;;;;5032503;28;20205;-67
2021/12/09 00:58:10;;;;;;;16.02;10.15;;;;;;;;;;5032573;28;20174;-67
2021/12/09 01:00:35;;;;;;;15.30;10.85;;;;;;;;;;5032797;28;20180;-67
2021/12/09 01:03:01;;;;;;;13.27;9.50;;;;;;;;;;5032758;28;20170;-68
2021/12/09 01:05:27;;;;;;;15.15;9.85;;;;;;;;;;5032482;28;20174;-67
2021/12/09 01:07:52;;;;;;;16.52;10.95;;;;;;;;;;5032647;28;20182;-67
2021/12/09 01:10:18;;;;;;;18.42;11.68;;;;;;;;;;5032383;28;20174;-67
2021/12/09 01:12:44;;;;;;;17.48;12.02;;;;;;;;;;5032713;28;20185;-67
2021/12/09 01:15:10;;;;;;;16.80;11.48;;;;;;;;;;5032394;28;20291;-68
2021/12/09 01:17:35;;;;;;;17.48;11.25;;;;;;;;;;5032202;28;20652;-67
2021/12/09 01:20:00;;;;;;;15.00;9.57;;;;;;;;;;5031806;28;20198;-68
2021/12/09 01:22:34;;;;;;;9.68;8.13;;;;;;;;;;5032007;28;20181;-67
2021/12/09 01:24:59;;;;;;;8.95;6.47;;;;;;;;;;5032245;28;20186;-67
2021/12/09 01:27:25;;;;;;;8.68;6.72;;;;;;;;;;5032323;28;20605;-67
2021/12/09 01:29:54;;;;;;;7.35;4.90;;;;;;;;;;5032107;28;20660;-67
2021/12/09 01:32:26;;;;;;;7.50;5.10;;;;;;;;;;5031909;28;20175;-67
2021/12/09 01:34:52;;;;;;;6.43;5.25;;;;;;;;;;5032034;28;20205;-67
2021/12/09 01:37:17;;;;;;;7.28;5.22;;;;;;;;;;5032002;28;20700;-67
2021/12/09 01:39:43;;;;;;;7.32;5.68;;;;;;;;;;5031966;28;20174;-67
2021/12/09 01:42:09;;;;;;;6.72;6.07;;;;;;;;;;5031884;28;20189;-67
2021/12/09 01:44:34;;;;;;;6.13;5.53;;;;;;;;;;5032187;28;20655;-67
2021/12/09 01:46:59;;;;;;;6.50;5.30;;;;;;;;;;5032126;28;20192;-67
2021/12/09 01:49:24;;;;;;;5.80;4.88;;;;;;;;;;5031937;28;20175;-67
2021/12/09 01:51:50;;;;;;;4.43;4.03;;;;;;;;;;5031889;28;20648;-67
2021/12/09 01:54:16;;;;;;;3.60;3.30;;;;;;;;;;5032030;28;20210;-67
2021/12/09 01:56:41;;;;;;;6.93;4.50;;;;;;;;;;5031723;28;20247;-66
2021/12/09 01:59:07;;;;;;;4.85;4.38;;;;;;;;;;5031774;28;20241;-67
2021/12/09 02:01:33;;;;;;;7.32;4.80;;;;;;;;;;5032080;28;20265;-67
2021/12/09 02:03:59;;;;;;;6.78;4.85;;;;;;;;;;5031310;28;20182;-67
2021/12/09 02:06:25;;;;;;;5.50;5.00;;;;;;;;;;5031824;28;20224;-67
2021/12/09 02:08:51;;;;;;;5.85;5.25;;;;;;;;;;5031692;28;20174;-67
2021/12/09 02:11:16;;;;;;;5.97;5.03;;;;;;;;;;5031688;28;20640;-67
2021/12/09 02:13:42;;;;;;;6.35;5.03;;;;;;;;;;5031473;28;20236;-67
2021/12/09 02:16:10;;;;;;;3.00;2.72;;;;;;;;;;5030406;28;20655;-67
2021/12/09 02:18:36;;;;;;;2.45;2.20;;;;;;;;;;5031614;28;20219;-67
2021/12/09 02:21:06;;;;;;;2.33;2.10;;;;;;;;;;5031590;28;20590;-67
2021/12/09 02:23:32;;;;;;;2.17;2.08;;;;;;;;;;5031571;28;20166;-67
2021/12/09 02:25:57;;;;;;;2.10;2.00;;;;;;;;;;5031509;28;20313;-67
2021/12/09 02:28:22;;;;;;;4.07;2.25;;;;;;;;;;5031745;28;20174;-67
2021/12/09 02:30:48;;;;;;;2.67;2.33;;;;;;;;;;5031553;28;20193;-67
2021/12/09 02:33:13;;;;;;;2.60;2.40;;;;;;;;;;5033054;28;20197;-67
2021/12/09 02:35:38;;;;;;;2.40;2.28;;;;;;;;;;5035560;28;20201;-67
2021/12/09 02:38:09;;;;;;;2.22;2.13;;;;;;;;;;5035194;28;20232;-67
2021/12/09 02:40:35;;;;;;;1.75;1.73;;;;;;;;;;5035188;28;20189;-67
2021/12/09 02:43:01;;;;;;;2.30;2.10;;;;;;;;;;5035077;28;20250;-68
2021/12/09 02:45:26;;;;;;;1.98;1.88;;;;;;;;;;5035247;28;20298;-67
2021/12/09 02:47:51;;;;;;;1.80;1.70;;;;;;;;;;5035312;28;20170;-67
2021/12/09 02:50:17;;;;;;;1.95;1.85;;;;;;;;;;5034978;28;20205;-67
2021/12/09 02:52:42;;;;;;;2.03;1.92;;;;;;;;;;5034964;28;20167;-67
2021/12/09 02:55:08;;;;;;;2.38;2.28;;;;;;;;;;5034782;28;20277;-67
2021/12/09 02:57:33;;;;;;;3.35;3.05;;;;;;;;;;5034784;28;20162;-67
2021/12/09 02:59:58;;;;;;;5.60;4.38;;;;;;;;;;5034764;28;20173;-67
2021/12/09 03:02:24;;;;;;;7.15;5.15;;;;;;;;;;5034777;28;20167;-67
2021/12/09 03:04:51;;;;;;;5.57;4.70;;;;;;;;;;5034675;28;20770;-67
2021/12/09 03:07:26;;;;;;;6.10;5.38;;;;;;;;;;5034665;28;20182;-67
2021/12/09 03:09:55;;;;;;;6.25;5.63;;;;;;;;;;5034590;28;20547;-67
2021/12/09 03:12:22;;;;;;;8.48;5.32;;;;;;;;;;5034560;28;20170;-68
2021/12/09 03:14:47;;;;;;;7.75;6.10;;;;;;;;;;5034610;28;20695;-68
2021/12/09 03:17:13;;;;;;;7.40;5.60;;;;;;;;;;5034513;28;20178;-67
2021/12/09 03:19:38;;;;;;;7.07;5.88;;;;;;;;;;5034451;28;20166;-68
2021/12/09 03:22:03;;;;;;;6.13;5.55;;;;;;;;;;5033101;28;20214;-67
2021/12/09 03:24:28;;;;;;;9.40;6.65;;;;;;;;;;5034246;28;20228;-67
2021/12/09 03:26:55;;;;;;;9.80;5.93;;;;;;;;;;5034237;28;20174;-67
2021/12/09 03:29:21;;;;;;;6.40;5.78;;;;;;;;;;5034506;28;20182;-67
2021/12/09 03:31:48;;;;;;;7.07;5.85;;;;;;;;;;5034236;28;20722;-67
2021/12/09 03:34:14;;;;;;;10.43;7.20;;;;;;;;;;5034015;28;20776;-67
2021/12/09 03:36:39;;;;;;;10.75;8.18;;;;;;;;;;5034413;28;20166;-67
2021/12/09 03:39:06;;;;;;;12.95;9.20;;;;;;;;;;5034106;28;20658;-67
2021/12/09 03:41:32;;;;;;;14.57;9.18;;;;;;;;;;5034047;28;20201;-67
2021/12/09 03:43:57;;;;;;;15.63;10.60;;;;;;;;;;5033752;28;20170;-66
2021/12/09 03:46:22;;;;;;;11.30;8.30;;;;;;;;;;5033922;28;20289;-67
2021/12/09 03:48:48;;;;;;;13.55;9.20;;;;;;;;;;5034175;28;20225;-67
2021/12/09 03:51:13;;;;;;;14.23;9.30;;;;;;;;;;5033872;28;20171;-67
2021/12/09 03:53:38;;;;;;;14.48;8.85;;;;;;;;;;5033859;28;20551;-67
2021/12/09 03:56:04;;;;;;;13.10;8.48;;;;;;;;;;5033645;28;20202;-67
2021/12/09 03:58:29;;;;;;;13.13;8.13;;;;;;;;;;5033623;28;20170;-67
2021/12/09 04:00:54;;;;;;;8.82;7.38;;;;;;;;;;5033913;28;20159;-67
2021/12/09 04:03:20;;;;;;;9.32;6.68;;;;;;;;;;5034158;28;20201;-67
2021/12/09 04:05:47;;;;;;;9.15;6.78;;;;;;;;;;5033869;28;20178;-67
2021/12/09 04:08:12;;;;;;;11.73;7.40;;;;;;;;;;5033582;28;20166;-67
2021/12/09 04:10:37;;;;;;;9.98;7.72;;;;;;;;;;5033419;28;20728;-67
2021/12/09 04:13:03;;;;;;;10.90;6.72;;;;;;;;;;5033368;28;20178;-67
2021/12/09 04:15:28;;;;;;;9.82;6.85;;;;;;;;;;5033298;28;20232;-67
2021/12/09 04:17:53;;;;;;;4.97;4.45;;;;;;;;;;5033351;28;20655;-67
2021/12/09 04:20:21;;;;;;;7.30;5.20;;;;;;;;;;5033532;28;20170;-67
2021/12/09 04:22:49;;;;;;;7.57;4.55;;;;;;;;;;5033242;28;20181;-67
2021/12/09 04:25:24;;;;;;;6.28;4.13;;;;;;;;;;5031886;28;20174;-67
2021/12/09 04:27:52;;;;;;;5.18;4.53;;;;;;;;;;5033133;28;20163;-67
2021/12/09 04:30:19;;;;;;;7.03;5.55;;;;;;;;;;5033094;28;20177;-67
2021/12/09 04:32:45;;;;;;;6.97;5.43;;;;;;;;;;5033126;28;20216;-67
2021/12/09 04:35:11;;;;;;;7.13;5.78;;;;;;;;;;5033068;28;20671;-67
2021/12/09 04:37:36;;;;;;;6.93;5.40;;;;;;;;;;5033083;28;20166;-67
2021/12/09 04:40:03;;;;;;;6.07;5.10;;;;;;;;;;5032904;28;20250;-67
2021/12/09 04:42:28;;;;;;;6.95;5.40;;;;;;;;;;5032897;28;20167;-67
2021/12/09 04:44:53;;;;;;;6.53;4.97;;;;;;;;;;5032754;28;20660;-68
2021/12/09 04:47:19;;;;;;;6.13;5.43;;;;;;;;;;5033063;28;20174;-67
2021/12/09 04:49:44;;;;;;;8.05;5.75;;;;;;;;;;5032734;28;20254;-67
2021/12/09 04:52:09;;;;;;;6.03;5.05;;;;;;;;;;5031472;28;20277;-67
2021/12/09 04:54:41;;;;;;;5.07;4.57;;;;;;;;;;5032591;28;20194;-67
2021/12/09 04:57:07;;;;;;;4.43;4.03;;;;;;;;;;5032059;28;20162;-67
2021/12/09 04:59:32;;;;;;;5.30;4.80;;;;;;;;;;5032872;28;20170;-67
2021/12/09 05:01:57;;;;;;;4.60;4.18;;;;;;;;;;5032506;28;20170;-67
2021/12/09 05:04:22;;;;;;;8.73;5.30;;;;;;;;;;5032527;28;20182;-67
2021/12/09 05:06:48;;;;;;;5.38;4.78;;;;;;;;;;5032480;28;20173;-67
2021/12/09 05:09:17;;;;;;;9.73;6.43;;;;;;;;;;5032349;28;20644;-67
2021/12/09 05:14:08;;;;;;;7.35;5.60;;;;;;;;;;5032191;28;20281;-69
2021/12/09 05:16:33;;;;;;;9.27;6.47;;;;;;;;;;5032296;28;20189;-67
2021/12/09 05:18:59;;;;;;;9.77;5.78;;;;;;;;;;5032301;28;20225;-67
2021/12/09 05:21:27;;;;;;;8.20;5.88;;;;;;;;;;5032238;28;20163;-68
2021/12/09 05:23:52;;;;;;;6.05;5.40;;;;;;;;;;5032286;28;20189;-67
2021/12/09 05:26:20;;;;;;;8.70;6.20;;;;;;;;;;5032219;28;20659;-67
2021/12/09 05:28:52;;;;;;;7.95;6.82;;;;;;;;;;5032188;28;20173;-68
2021/12/09 05:34:01;;;;;;;12.70;9.52;;;;;;;;;;5032182;28;20278;-67
2021/12/09 05:36:27;;;;;;;16.50;9.73;;;;;;;;;;5032079;28;20253;-67
2021/12/09 05:38:52;;;;;;;12.15;8.43;;;;;;;;;;5032289;28;20182;-67
2021/12/09 05:41:17;;;;;;;10.38;8.48;;;;;;;;;;5031986;28;20655;-67
2021/12/09 05:43:43;;;;;;;9.30;6.65;;;;;;;;;;5032203;28;20276;-67
2021/12/09 05:46:08;;;;;;;9.52;7.50;;;;;;;;;;5032170;28;20175;-68
2021/12/09 05:48:34;;;;;;;7.10;6.38;;;;;;;;;;5030651;28;20166;-66
2021/12/09 05:51:00;;;;;;;11.00;7.75;;;;;;;;;;5031893;28;20194;-66
2021/12/09 05:53:25;;;;;;;10.07;7.57;;;;;;;;;;5032081;28;20260;-66
2021/12/09 05:55:50;;;;;;;11.73;8.95;;;;;;;;;;5031705;28;20198;-66
2021/12/09 05:58:17;;;;;;;7.55;6.18;;;;;;;;;;5031781;28;20176;-66
2021/12/09 06:00:42;;;;;;;9.40;6.47;;;;;;;;;;5031815;28;20257;-66
2021/12/09 06:03:08;;;;;;;8.68;6.63;;;;;;;;;;5031796;28;20246;-67
2021/12/09 06:05:33;;;;;;;17.40;12.20;;;;;;;;;;5031733;28;20229;-67
2021/12/09 06:07:59;;;;;;;22.52;14.38;;;;;;;;;;5034886;28;20166;-67
2021/12/09 06:10:24;;;;;;;21.25;14.50;;;;;;;;;;5036012;28;20648;-66
2021/12/09 06:12:49;;;;;;;19.95;13.93;;;;;;;;;;5035657;28;20735;-66
2021/12/09 06:15:15;;;;;;;21.73;14.32;;;;;;;;;;5035605;28;20193;-66
2021/12/09 06:17:40;;;;;;;20.60;14.23;;;;;;;;;;5035892;28;20206;-66
2021/12/09 06:20:06;;;;;;;21.23;14.32;;;;;;;;;;5036393;28;20166;-66
2021/12/09 06:22:31;;;;;;;19.73;14.30;;;;;;;;;;5035743;28;20177;-67
2021/12/09 06:24:56;;;;;;;24.15;16.00;;;;;;;;;;5035655;28;20671;-67
2021/12/09 06:27:21;;;;;;;30.67;18.77;;;;;;;;;;5035357;28;20170;-67
2021/12/09 06:29:47;;;;;;;37.90;20.58;;;;;;;;;;5035392;28;20171;-66
2021/12/09 06:32:12;;;;;;;35.85;21.08;;;;;;;;;;5035815;28;20169;-67
2021/12/09 06:34:37;;;;;;;43.22;22.80;;;;;;;;;;5035095;28;20210;-66
2021/12/09 06:37:02;;;;;;;69.70;35.20;;;;;;;;;;5035275;28;20171;-66
2021/12/09 06:39:28;;;;;;;50.10;28.52;;;;;;;;;;5035151;28;20668;-66
2021/12/09 06:41:53;;;;;;;47.35;27.60;;;;;;;;;;5035087;28;20186;-66
2021/12/09 06:44:18;;;;;;;50.33;28.45;;;;;;;;;;5035061;28;20197;-66
2021/12/09 06:46:44;;;;;;;51.00;29.80;;;;;;;;;;5035055;28;20179;-66
2021/12/09 06:49:09;;;;;;;57.17;31.50;;;;;;;;;;5035030;28;20163;-67
2021/12/09 06:51:34;;;;;;;44.80;27.20;;;;;;;;;;5035202;28;20217;-66
2021/12/09 06:54:00;;;;;;;39.13;24.33;;;;;;;;;;5034877;28;20171;-66
2021/12/09 06:56:27;;;;;;;33.85;21.60;;;;;;;;;;5035056;28;20225;-66
2021/12/09 06:58:52;;;;;;;33.03;20.58;;;;;;;;;;5033616;28;20171;-66
2021/12/09 07:01:17;;;;;;;34.05;21.58;;;;;;;;;;5034814;28;20622;-66
2021/12/09 07:03:43;;;;;;;35.20;22.30;;;;;;;;;;5034770;28;20173;-66
2021/12/09 07:06:11;;;;;;;33.05;20.77;;;;;;;;;;5034693;28;20590;-66
2021/12/09 07:08:42;;;;;;;51.50;27.60;;;;;;;;;;5034911;28;20255;-66
2021/12/09 07:11:08;;;;;;;32.28;20.77;;;;;;;;;;5034939;28;20165;-67
2021/12/09 07:13:33;;;;;;;33.15;19.15;;;;;;;;;;5034575;28;20568;-67
2021/12/09 07:15:59;;;;;;;33.78;21.05;;;;;;;;;;5034581;28;20202;-66
2021/12/09 07:18:25;;;;;;;36.38;20.92;;;;;;;;;;5033763;28;20166;-66
2021/12/09 07:20:51;;;;;;;37.55;22.42;;;;;;;;;;5034492;28;20169;-66
2021/12/09 07:23:16;;;;;;;40.58;23.92;;;;;;;;;;5034601;28;20163;-67
2021/12/09 07:25:42;;;;;;;34.45;22.45;;;;;;;;;;5034433;28;20586;-67
2021/12/09 07:28:07;;;;;;;37.33;22.10;;;;;;;;;;5034931;28;20162;-68
2021/12/09 07:30:32;;;;;;;36.08;22.92;;;;;;;;;;5034354;28;20178;-67
2021/12/09 07:32:58;;;;;;;38.30;23.58;;;;;;;;;;5034134;28;20199;-67
2021/12/09 07:35:30;;;;;;;31.65;20.52;;;;;;;;;;5034161;28;20277;-67
2021/12/09 07:37:55;;;;;;;32.42;20.08;;;;;;;;;;5034222;28;20182;-67
2021/12/09 07:40:20;;;;;;;36.55;20.58;;;;;;;;;;5034145;28;20194;-66
2021/12/09 07:42:46;;;;;;;34.40;21.55;;;;;;;;;;5034271;28;20167;-67
2021/12/09 07:45:12;;;;;;;38.00;22.20;;;;;;;;;;5034029;28;20167;-66
2021/12/09 07:47:37;;;;;;;37.17;22.42;;;;;;;;;;5033972;28;20170;-67
2021/12/09 07:50:04;;;;;;;37.40;22.92;;;;;;;;;;5033944;28;20181;-67
2021/12/09 07:52:29;;;;;;;39.92;21.20;;;;;;;;;;5034074;28;20182;-67
2021/12/09 07:54:54;;;;;;;36.40;21.73;;;;;;;;;;5033734;28;20275;-67
2021/12/09 07:57:20;;;;;;;35.05;20.88;;;;;;;;;;5033989;28;20173;-67
2021/12/09 07:59:45;;;;;;;36.38;22.95;;;;;;;;;;5033995;28;20171;-66
2021/12/09 08:02:11;;;;;;;36.70;23.20;;;;;;;;;;5033958;28;20175;-66
2021/12/09 08:04:37;;;;;;;40.67;23.85;;;;;;;;;;5033681;28;20640;-66
2021/12/09 08:07:02;;;;;;;41.30;23.75;;;;;;;;;;5033906;28;20170;-66
2021/12/09 08:09:27;;;;;;;42.63;25.23;;;;;;;;;;5033812;28;20186;-66
2021/12/09 08:11:53;;;;;;;48.58;27.75;;;;;;;;;;5033647;28;20674;-66
2021/12/09 08:14:19;;;;;;;52.45;29.65;;;;;;;;;;5033336;28;20581;-66
2021/12/09 08:16:44;;;;;;;44.67;28.58;;;;;;;;;;5033403;28;20563;-67
2021/12/09 08:19:11;;;;;;;48.20;27.33;;;;;;;;;;5033666;28;20170;-68
2021/12/09 08:21:37;;;;;;;42.00;24.48;;;;;;;;;;5033586;28;20178;-66
2021/12/09 08:24:06;;;;;;;40.70;24.05;;;;;;;;;;5033380;28;20163;-67
2021/12/09 08:26:32;;;;;;;39.33;22.60;;;;;;;;;;5033343;28;20167;-66
2021/12/09 08:28:58;;;;;;;33.30;23.27;;;;;;;;;;5033181;28;20197;-66
2021/12/09 08:31:23;;;;;;;37.15;22.02;;;;;;;;;;5033135;28;20619;-66
2021/12/09 08:33:49;;;;;;;32.80;20.60;;;;;;;;;;5032925;28;20183;-66
2021/12/09 08:36:14;;;;;;;32.53;19.02;;;;;;;;;;5033239;28;20289;-67
2021/12/09 08:38:40;;;;;;;27.42;17.52;;;;;;;;;;5033016;28;20170;-66
2021/12/09 08:41:05;;;;;;;27.30;17.50;;;;;;;;;;5032921;28;20242;-66
2021/12/09 08:43:30;;;;;;;22.30;15.32;;;;;;;;;;5032961;28;20224;-67
2021/12/09 08:45:56;;;;;;;21.10;12.82;;;;;;;;;;5033076;28;20229;-67
2021/12/09 08:48:22;;;;;;;23.55;16.10;;;;;;;;;;5032812;28;20249;-67
2021/12/09 08:50:48;;;;;;;28.75;16.95;;;;;;;;;;5032884;28;20181;-67
2021/12/09 08:53:16;;;;;;;29.33;19.15;;;;;;;;;;5032711;28;20179;-67
2021/12/09 08:55:41;;;;;;;32.30;18.38;;;;;;;;;;5032623;28;20285;-67
2021/12/09 08:58:08;;;;;;;31.00;20.17;;;;;;;;;;5032565;28;20254;-67
2021/12/09 09:00:34;;;;;;;36.20;20.80;;;;;;;;;;5032590;28;20236;-67
2021/12/09 09:02:59;;;;;;;33.10;21.08;;;;;;;;;;5032791;28;20249;-67
2021/12/09 09:05:25;;;;;;;37.08;20.92;;;;;;;;;;5032792;28;20174;-68
2021/12/09 09:07:51;;;;;;;32.75;19.35;;;;;;;;;;5032454;28;20169;-66
2021/12/09 09:10:17;;;;;;;29.50;19.45;;;;;;;;;;5032466;28;20252;-67
2021/12/09 09:12:43;;;;;;;29.02;19.90;;;;;;;;;;5032450;28;20174;-68
2021/12/09 09:15:10;;;;;;;29.50;18.52;;;;;;;;;;5032334;28;20201;-67
2021/12/09 09:17:36;;;;;;;38.33;22.42;;;;;;;;;;5032308;28;20174;-67
2021/12/09 09:20:02;;;;;;;42.15;23.67;;;;;;;;;;5032555;28;20166;-68
2021/12/09 09:22:28;;;;;;;36.80;22.65;;;;;;;;;;5032221;28;20197;-67
2021/12/09 09:24:53;;;;;;;36.40;22.95;;;;;;;;;;5032275;28;20240;-67
2021/12/09 09:27:18;;;;;;;34.25;19.88;;;;;;;;;;5032172;28;20717;-68
2021/12/09 09:29:44;;;;;;;35.10;21.45;;;;;;;;;;5032134;28;20257;-67
2021/12/09 09:32:12;;;;;;;32.63;21.17;;;;;;;;;;5032254;28;20166;-68
2021/12/09 09:34:37;;;;;;;40.95;22.48;;;;;;;;;;5031880;28;20202;-66
2021/12/09 09:37:04;;;;;;;35.60;22.92;;;;;;;;;;5031969;28;20197;-67
2021/12/09 09:39:31;;;;;;;39.75;24.80;;;;;;;;;;5030810;28;20224;-67
2021/12/09 09:44:46;;;;;;;43.28;24.67;;;;;;;;;;5032059;28;20170;-67
2021/12/09 09:47:11;;;;;;;40.17;24.40;;;;;;;;;;5032139;28;20154;-66
2021/12/09 09:49:37;;;;;;;40.17;25.85;;;;;;;;;;5032062;28;20169;-66
2021/12/09 09:52:03;;;;;;;39.45;24.98;;;;;;;;;;5031953;28;20182;-66
2021/12/09 09:54:28;;;;;;;45.33;25.38;;;;;;;;;;5032049;28;20226;-66
2021/12/09 09:56:53;;;;;;;46.15;26.88;;;;;;;;;;5031849;28;20228;-66
2021/12/09 09:59:18;;;;;;;45.17;26.30;;;;;;;;;;5031841;28;20166;-67
2021/12/09 10:01:45;;;;;;;40.65;25.90;;;;;;;;;;5031911;28;20174;-66
2021/12/09 10:04:12;;;;;;;42.95;26.88;;;;;;;;;;5031721;28;20561;-67
2021/12/09 10:06:39;;;;;;;41.65;27.55;;;;;;;;;;5032059;28;20596;-67
2021/12/09 10:09:06;;;;;;;48.67;28.45;;;;;;;;;;5031699;28;20648;-67
2021/12/09 10:11:31;;;;;;;44.70;27.60;;;;;;;;;;5031894;28;20177;-67
2021/12/09 10:14:08;;;;;;;47.10;28.42;;;;;;;;;;5031812;28;20171;-67
2021/12/09 10:16:34;;;;;;;43.92;26.08;;;;;;;;;;5031736;28;20150;-68
2021/12/09 10:18:59;;;;;;;37.83;25.50;;;;;;;;;;5031949;28;20724;-67
2021/12/09 10:21:26;;;;;;;46.72;26.48;;;;;;;;;;5031843;28;20671;-68
2021/12/09 10:23:59;;;;;;;50.05;29.63;;;;;;;;;;5030353;28;20181;-68
2021/12/09 10:26:27;;;;;;;43.85;27.13;;;;;;;;;;5031857;28;20254;-67
2021/12/09 10:28:54;;;;;;;44.20;27.73;;;;;;;;;;5031820;28;20226;-67
2021/12/09 10:31:22;;;;;;;47.13;27.90;;;;;;;;;;5031790;28;20181;-67
2021/12/09 10:34:27;;;;;;;51.75;28.27;;;;;;;;;;5031526;28;20190;-67
2021/12/09 10:36:54;;;;;;;48.50;30.13;;;;;;;;;;5031813;28;20171;-66
2021/12/09 10:39:25;;;;;;;41.88;26.35;;;;;;;;;;5031484;28;20167;-67
2021/12/09 10:41:51;;;;;;;44.38;25.38;;;;;;;;;;5031427;28;20662;-67
2021/12/09 10:44:16;;;;;;;47.42;26.15;;;;;;;;;;5031458;28;20229;-67
2021/12/09 10:46:53;;;;;;;43.85;26.88;;;;;;;;;;5031391;28;20236;-67
2021/12/09 10:49:18;;;;;;;44.42;25.73;;;;;;;;;;5031685;28;20162;-67
2021/12/09 10:51:56;;;;;;;39.00;24.48;;;;;;;;;;5031162;28;20663;-67
2021/12/09 10:54:32;;;;;;;40.08;23.83;;;;;;;;;;5033347;28;20221;-67
2021/12/09 10:57:17;;;;;;;37.38;20.73;;;;;;;;;;5035099;28;20181;-66
2021/12/09 10:59:43;;;;;;;35.08;22.23;;;;;;;;;;5034826;28;20170;-66
2021/12/09 11:02:09;;;;;;;36.90;23.52;;;;;;;;;;5034836;28;20190;-66
2021/12/09 11:04:34;;;;;;;34.70;22.23;;;;;;;;;;5034821;28;20205;-69
2021/12/09 11:07:17;;;;;;;37.95;24.23;;;;;;;;;;5034928;28;20642;-67
2021/12/09 11:09:43;;;;;;;39.15;23.92;;;;;;;;;;5035068;28;20170;-67
2021/12/09 11:12:24;;;;;;;37.55;23.77;;;;;;;;;;5034623;28;20174;-67
2021/12/09 11:14:58;;;;;;;39.75;23.52;;;;;;;;;;5034453;28;20587;-68
2021/12/09 11:17:35;;;;;;;34.35;22.40;;;;;;;;;;5033949;28;20173;-68
2021/12/09 11:20:02;;;;;;;38.35;23.17;;;;;;;;;;5034609;28;20181;-67
2021/12/09 11:22:31;;;;;;;39.78;23.52;;;;;;;;;;5034489;28;20183;-68
2021/12/09 11:25:01;;;;;;;31.33;21.48;;;;;;;;;;5034882;28;20253;-68
2021/12/09 11:27:28;;;;;;;37.65;23.92;;;;;;;;;;5034678;28;20188;-67
2021/12/09 11:30:00;;;;;;;35.63;21.35;;;;;;;;;;5034277;28;20175;-67
2021/12/09 11:32:48;;;;;;;36.13;20.17;;;;;;;;;;5034489;28;20254;-68
2021/12/09 11:35:28;;;;;;;31.40;16.83;;;;;;;;;;5034445;28;20671;-67
2021/12/09 11:38:06;;;;;;;28.70;17.85;;;;;;;;;;5034196;28;20190;-68
2021/12/09 11:40:41;;;;;;;28.27;18.17;;;;;;;;;;5034450;28;20158;-67
2021/12/09 11:43:10;;;;;;;25.77;15.70;;;;;;;;;;5034423;28;20154;-68
2021/12/09 11:45:54;;;;;;;32.78;18.67;;;;;;;;;;5032800;28;20174;-68
2021/12/09 11:48:20;;;;;;;34.58;20.70;;;;;;;;;;5034029;28;20170;-67
2021/12/09 11:50:47;;;;;;;21.55;14.98;;;;;;;;;;5033980;28;20201;-68
2021/12/09 11:53:13;;;;;;;23.00;16.38;;;;;;;;;;5033885;28;20181;-68
2021/12/09 11:55:44;;;;;;;28.67;19.65;;;;;;;;;;5034026;28;20264;-68
2021/12/09 11:58:32;;;;;;;59.28;30.70;;;;;;;;;;5033778;28;20632;-68
2021/12/09 12:07:11;;;;;;;35.58;22.08;;;;;;;;;;5033984;28;20169;-61
2021/12/09 12:15:16;;;;;;;38.53;20.63;;;;;;;;;;5033343;28;20206;-66
2021/12/09 12:18:10;;;;;;;30.92;20.77;;;;;;;;;;5033249;28;20667;-66
2021/12/09 12:20:42;;;;;;;28.15;19.25;;;;;;;;;;5033342;28;20263;-66
2021/12/09 12:23:28;;;;;;;30.63;20.42;;;;;;;;;;5033625;28;20621;-66
2021/12/09 12:28:53;;;;;;;28.67;19.85;;;;;;;;;;5033507;28;20257;-67
2021/12/09 12:31:33;;;;;;;30.52;20.38;;;;;;;;;;5033101;28;20198;-67
2021/12/09 12:37:14;;;;;;;113.53;56.45;;;;;;;;;;5033123;28;20169;-69
2021/12/09 12:39:59;;;;;;;93.80;39.25;;;;;;;;;;5032714;28;20182;-67
2021/12/09 12:45:08;;;;;;;46.33;27.60;;;;;;;;;;5032776;28;20178;-67
2021/12/09 12:47:40;;;;;;;31.15;18.90;;;;;;;;;;5032872;28;20170;-68
2021/12/09 12:50:13;;;;;;;24.45;17.52;;;;;;;;;;5032794;28;20167;-67
2021/12/09 12:52:39;;;;;;;32.72;19.25;;;;;;;;;;5033001;28;20607;-67
2021/12/09 12:55:11;;;;;;;31.33;20.10;;;;;;;;;;5032616;28;20214;-68
2021/12/09 12:57:40;;;;;;;29.80;20.00;;;;;;;;;;5032801;28;20225;-69
2021/12/09 13:00:09;;;;;;;34.42;21.67;;;;;;;;;;5032860;28;20265;-67
2021/12/09 13:08:41;;;;;;;49.65;27.98;;;;;;;;;;5032902;28;20163;-66
2021/12/09 13:13:46;;;;;;;36.60;23.30;;;;;;;;;;5032707;28;20202;-66
2021/12/09 13:16:17;;;;;;;30.75;20.92;;;;;;;;;;5031982;28;20182;-66
2021/12/09 13:21:38;;;;;;;39.20;23.67;;;;;;;;;;5032341;28;20169;-67
2021/12/09 13:24:24;;;;;;;36.03;21.77;;;;;;;;;;5032449;28;20170;-66
2021/12/09 13:27:02;;;;;;;47.85;27.75;;;;;;;;;;5032515;28;20170;-66
2021/12/09 13:29:38;;;;;;;39.53;23.35;;;;;;;;;;5032198;28;20636;-66
2021/12/09 13:32:29;;;;;;;45.33;25.98;;;;;;;;;;5032160;28;20688;-67
2021/12/09 13:35:05;;;;;;;35.67;20.45;;;;;;;;;;5031796;28;20222;-67
2021/12/09 13:37:51;;;;;;;67.10;34.55;;;;;;;;;;5032340;28;20189;-67
2021/12/09 13:48:18;;;;;;;31.45;20.30;;;;;;;;;;5032470;28;20162;-67
2021/12/09 13:50:57;;;;;;;29.45;20.95;;;;;;;;;;5032004;28;20629;-67
2021/12/09 13:56:06;;;;;;;34.08;20.38;;;;;;;;;;5032095;28;20213;-68
2021/12/09 13:58:32;;;;;;;28.05;17.70;;;;;;;;;;5031781;28;20645;-67
2021/12/09 14:00:57;;;;;;;27.85;18.27;;;;;;;;;;5031875;28;20181;-67
2021/12/09 14:03:24;;;;;;;31.73;20.60;;;;;;;;;;5032112;28;20178;-68
2021/12/09 14:05:52;;;;;;;30.10;19.60;;;;;;;;;;5032103;28;20683;-68
2021/12/09 14:08:41;;;;;;;32.95;20.98;;;;;;;;;;5031802;28;20260;-67
2021/12/09 14:11:16;;;;;;;43.90;24.98;;;;;;;;;;5031273;28;20273;-69
2021/12/09 14:13:47;;;;;;;41.70;23.52;;;;;;;;;;5031693;28;20162;-66
2021/12/09 14:16:37;;;;;;;50.15;29.02;;;;;;;;;;5030789;28;20201;-67
2021/12/09 14:21:33;;;;;;;43.58;25.05;;;;;;;;;;5032185;28;20182;-66
2021/12/09 14:24:08;;;;;;;38.55;25.02;;;;;;;;;;5031670;28;20174;-68
2021/12/09 14:26:34;;;;;;;44.35;25.55;;;;;;;;;;5031888;28;20227;-66
2021/12/09 14:29:00;;;;;;;40.45;26.52;;;;;;;;;;5034539;28;20178;-67
2021/12/09 14:31:26;;;;;;;41.58;26.63;;;;;;;;;;5035644;28;20175;-67
2021/12/09 14:33:51;;;;;;;37.58;26.27;;;;;;;;;;5035215;28;20229;-67
2021/12/09 14:36:17;;;;;;;37.70;23.10;;;;;;;;;;5035336;28;20698;-67
2021/12/09 14:38:43;;;;;;;36.05;23.75;;;;;;;;;;5035593;28;20186;-67
2021/12/09 14:41:24;;;;;;;35.15;23.98;;;;;;;;;;5035311;28;20557;-68
2021/12/09 14:43:50;;;;;;;33.30;20.55;;;;;;;;;;5035510;28;20603;-66
2021/12/09 14:46:22;;;;;;;31.70;19.92;;;;;;;;;;5035174;28;20559;-67
2021/12/09 14:48:47;;;;;;;29.95;19.10;;;;;;;;;;5035073;28;20624;-67
2021/12/09 14:51:12;;;;;;;34.22;20.90;;;;;;;;;;5034899;28;20265;-67
2021/12/09 14:53:39;;;;;;;34.95;20.10;;;;;;;;;;5033538;28;20237;-68
2021/12/09 14:56:06;;;;;;;29.42;18.95;;;;;;;;;;5034970;28;20213;-67
2021/12/09 14:58:37;;;;;;;26.52;17.48;;;;;;;;;;5035032;28;20175;-67
2021/12/09 15:01:08;;;;;;;28.58;18.63;;;;;;;;;;5035249;28;20150;-67
2021/12/09 15:03:43;;;;;;;24.80;16.08;;;;;;;;;;5034846;28;20551;-67
2021/12/09 15:06:19;;;;;;;26.20;15.68;;;;;;;;;;5034812;28;20262;-67
2021/12/09 15:08:49;;;;;;;24.92;14.80;;;;;;;;;;5034760;28;20163;-67
2021/12/09 15:11:16;;;;;;;32.78;21.33;;;;;;;;;;5034612;28;20178;-67
2021/12/09 15:13:48;;;;;;;47.40;30.08;;;;;;;;;;5034607;28;20552;-68
2021/12/09 15:16:19;;;;;;;49.42;29.27;;;;;;;;;;5034483;28;20292;-68
2021/12/09 15:18:44;;;;;;;88.10;48.45;;;;;;;;;;5034616;28;20700;-67
2021/12/09 15:21:17;;;;;;;132.52;69.97;;;;;;;;;;5034448;28;20216;-67
2021/12/09 15:23:48;;;;;;;39.20;23.08;;;;;;;;;;5034461;28;20245;-68